Time;durP1;ratioP1;P1;durP2;ratioP2;P2;SDS_P1;SDS_P2;PMS_P1;PMS_P2;Temp;Humidity;BMP_temperature;BMP_pressure;BME280_temperature;BME280_humidity;BME280_pressure;Samples;Min_cycle;Max_cycle;Signal;HPM_P1;HPM_P2
2022/12/28 00:02:11;;;;;;;5.40;2.70;;;;;;;1.73;88.18;99739.55;102155;1305;23001;-53
2022/12/28 00:04:37;;;;;;;;;;;;;;;1.72;88.19;99739.57;102195;1313;22877;-54
2022/12/28 00:07:04;;;;;;;7.40;2.80;;;;;;;1.71;88.34;99743.95;102001;1298;123884;-53
2022/12/28 00:09:31;;;;;;;7.90;3.00;;;;;;;1.70;88.33;99746.41;102194;1290;22481;-53
2022/12/28 00:11:58;;;;;;;7.40;3.30;;;;;;;1.70;88.46;99752.86;102066;1282;137932;-52
2022/12/28 00:14:24;;;;;;;7.60;3.40;;;;;;;1.70;88.48;99758.80;102176;1299;24058;-53
2022/12/28 00:16:51;;;;;;;;;;;;;;;1.70;88.36;99760.09;102151;1289;22895;-53
2022/12/28 00:19:18;;;;;;;8.50;3.60;;;;;;;1.68;88.24;99754.98;102152;1298;124821;-53
2022/12/28 00:21:45;;;;;;;;;;;;;;;1.67;88.34;99757.91;102041;1313;22478;-53
2022/12/28 00:24:17;;;;;;;4.60;2.50;;;;;;;1.66;88.36;99762.06;102070;1298;125793;-53
2022/12/28 00:26:44;;;;;;;14.50;4.60;;;;;;;1.64;88.41;99763.41;102179;1298;25370;-53
2022/12/28 00:29:11;;;;;;;;;;;;;;;1.63;88.64;99762.98;102240;1298;24150;-53
2022/12/28 00:31:38;;;;;;;8.30;3.10;;;;;;;1.61;88.71;99765.16;101960;1298;124318;-53
2022/12/28 00:34:04;;;;;;;;;;;;;;;1.59;88.57;99768.09;101991;1307;22585;-53
2022/12/28 00:36:32;;;;;;;9.60;3.20;;;;;;;1.56;88.73;99770.59;102171;1304;124896;-53
2022/12/28 00:39:19;;;;;;;9.10;3.70;;;;;;;1.54;89.01;99765.56;102308;1299;25270;-53
2022/12/28 00:41:46;;;;;;;9.30;3.80;;;;;;;1.53;89.07;99765.28;102065;1292;137630;-53
2022/12/28 00:44:12;;;;;;;;;;;;;;;1.52;89.09;99767.54;102115;1297;25990;-53
2022/12/28 00:46:40;;;;;;;15.20;3.30;;;;;;;1.51;89.28;99770.17;102196;1299;25548;-53
2022/12/28 00:49:06;;;;;;;11.30;3.90;;;;;;;1.50;89.22;99775.39;101770;1294;137407;-54
2022/12/28 00:51:33;;;;;;;9.30;3.80;;;;;;;1.49;89.38;99784.10;102195;1289;22737;-52
2022/12/28 00:54:00;;;;;;;;;;;;;;;1.47;89.45;99785.86;102061;1305;137865;-53
2022/12/28 00:56:27;;;;;;;10.10;3.40;;;;;;;1.46;89.53;99784.23;102293;1298;22550;-53
2022/12/28 00:58:57;;;;;;;9.00;3.40;;;;;;;1.45;89.68;99785.96;102203;1305;22460;-53
2022/12/28 01:01:24;;;;;;;8.50;3.40;;;;;;;1.45;89.86;99783.85;102143;1305;137452;-53
2022/12/28 01:03:54;;;;;;;8.90;3.70;;;;;;;1.45;90.03;99786.00;106488;1306;23530;-54
2022/12/28 01:06:24;;;;;;;8.80;3.10;;;;;;;1.45;90.08;99785.27;106523;1306;137735;-54
2022/12/28 01:08:51;;;;;;;11.90;4.40;;;;;;;1.47;90.14;99785.98;106524;1298;22122;-54
2022/12/28 01:11:19;;;;;;;;;;;;;;;1.49;90.31;99784.57;106544;1306;23698;-53
2022/12/28 01:13:46;;;;;;;8.20;3.30;;;;;;;1.51;90.43;99779.17;106344;1298;123959;-53
2022/12/28 01:16:15;;;;;;;12.20;3.80;;;;;;;1.52;90.44;99782.77;106556;1306;22218;-53
2022/12/28 01:18:42;;;;;;;9.10;3.30;;;;;;;1.54;90.60;99781.35;106398;1303;137736;-54
2022/12/28 01:21:17;;;;;;;9.90;3.60;;;;;;;1.56;90.49;99786.95;106598;1292;22129;-54
2022/12/28 01:23:44;;;;;;;10.00;3.90;;;;;;;1.58;90.52;99782.50;106533;1306;22238;-54
2022/12/28 01:26:11;;;;;;;10.50;3.70;;;;;;;1.60;90.57;99785.11;106686;1297;22717;-54
2022/12/28 01:28:38;;;;;;;;;;;;;;;1.63;90.76;99790.34;106714;1295;22363;-53
2022/12/28 01:31:06;;;;;;;7.50;4.20;;;;;;;1.65;90.77;99791.31;106538;1296;124495;-54
2022/12/28 01:33:33;;;;;;;12.50;4.50;;;;;;;1.67;90.78;99795.17;106554;1305;23289;-53
2022/12/28 01:36:07;;;;;;;9.90;3.70;;;;;;;1.68;90.64;99796.88;106436;1303;138281;-54
2022/12/28 01:38:36;;;;;;;7.20;3.50;;;;;;;1.69;90.66;99795.89;106563;1306;22833;-53
2022/12/28 01:41:05;;;;;;;;;;;;;;;1.71;90.79;99796.88;103045;1298;22468;-53
2022/12/28 01:43:42;;;;;;;6.70;3.30;;;;;;;1.73;90.86;99796.21;102257;1313;124242;-53
2022/12/28 01:46:11;;;;;;;9.10;3.90;;;;;;;1.74;90.94;99787.83;106313;1305;22191;-54
2022/12/28 01:48:50;;;;;;;10.60;3.90;;;;;;;1.76;90.74;99788.87;106458;1303;138066;-54
2022/12/28 01:51:17;;;;;;;7.50;3.50;;;;;;;1.77;90.88;99787.41;106617;1306;22312;-55
2022/12/28 01:53:43;;;;;;;11.00;3.90;;;;;;;1.78;90.88;99786.02;106635;1303;23296;-55
2022/12/28 01:56:12;;;;;;;11.30;3.40;;;;;;;1.79;90.72;99789.20;106418;1301;22139;-55
2022/12/28 01:58:39;;;;;;;4.50;3.60;;;;;;;1.79;90.82;99790.64;106553;1303;22968;-55
2022/12/28 02:01:06;;;;;;;11.50;3.70;;;;;;;1.79;90.64;99789.70;106599;1303;138837;-55
2022/12/28 02:03:33;;;;;;;10.30;3.50;;;;;;;1.78;90.64;99787.08;106677;1304;22141;-55
2022/12/28 02:06:00;;;;;;;;;;;;;;;1.81;90.82;99787.59;106450;1303;137762;-52
2022/12/28 02:08:36;;;;;;;10.90;3.90;;;;;;;1.81;90.73;99788.63;106684;1303;22279;-55
2022/12/28 02:11:02;;;;;;;10.90;3.80;;;;;;;1.81;90.75;99790.98;106706;1303;22133;-55
2022/12/28 02:13:29;;;;;;;10.20;4.50;;;;;;;1.83;90.75;99793.77;106469;1303;138728;-55
2022/12/28 02:15:56;;;;;;;12.30;4.30;;;;;;;1.84;90.77;99797.21;106472;1301;22189;-53
2022/12/28 02:18:24;;;;;;;11.50;4.50;;;;;;;1.85;90.66;99799.51;106613;1295;138359;-52
2022/12/28 02:20:59;;;;;;;9.30;5.10;;;;;;;1.83;90.75;99794.65;106500;1303;22976;-53
2022/12/28 02:23:44;;;;;;;9.70;4.50;;;;;;;1.87;90.83;99798.98;106706;1287;22212;-53
2022/12/28 02:26:44;;;;;;;13.60;5.00;;;;;;;1.87;90.88;99797.65;106495;1304;22251;-54
2022/12/28 02:29:33;;;;;;;12.80;4.70;;;;;;;1.88;90.92;99798.39;106523;1304;22105;-54
2022/12/28 02:32:06;;;;;;;8.60;4.70;;;;;;;1.90;90.78;99804.58;106465;1304;140448;-53
2022/12/28 02:34:40;;;;;;;11.50;4.60;;;;;;;1.91;90.69;99800.80;106608;1297;22220;-53
2022/12/28 02:37:23;;;;;;;13.60;4.90;;;;;;;1.91;90.92;99803.83;106412;1295;139677;-54
2022/12/28 02:39:53;;;;;;;10.20;4.60;;;;;;;1.91;90.73;99805.07;105111;1291;22508;-53
2022/12/28 02:42:20;;;;;;;20.00;8.50;;;;;;;1.91;90.77;99804.25;102153;1304;140264;-53
2022/12/28 02:50:18;;;;;;;11.70;5.60;;;;;;;1.91;90.92;99814.90;106504;1293;22237;-54
2022/12/28 02:52:50;;;;;;;14.20;5.80;;;;;;;1.91;90.87;99816.61;106757;1303;22123;-54
2022/12/28 02:58:34;;;;;;;12.50;4.80;;;;;;;1.91;90.89;99817.71;106670;1303;22255;-53
2022/12/28 03:01:10;;;;;;;8.20;4.70;;;;;;;1.92;91.02;99818.71;106473;1303;137836;-53
2022/12/28 03:03:40;;;;;;;12.40;5.40;;;;;;;1.92;91.04;99822.35;106610;1303;22249;-53
2022/12/28 03:09:22;;;;;;;10.20;4.50;;;;;;;1.93;91.00;99831.80;106501;1304;22291;-54
2022/12/28 03:12:04;;;;;;;13.40;5.10;;;;;;;1.93;90.99;99838.58;106537;1306;22236;-53
2022/12/28 03:14:41;;;;;;;16.90;5.30;;;;;;;1.95;91.09;99836.20;106503;1304;22429;-53
2022/12/28 03:31:17;;;;;;;9.50;5.20;;;;;;;1.97;91.11;99841.10;106643;1303;138585;-54
2022/12/28 03:33:49;;;;;;;14.30;4.70;;;;;;;1.97;90.90;99840.65;106524;1303;22940;-54
2022/12/28 03:36:25;;;;;;;8.60;5.60;;;;;;;1.97;90.90;99841.55;106473;1291;140249;-55
2022/12/28 03:38:51;;;;;;;9.50;4.20;;;;;;;1.98;90.98;99841.06;106566;1303;22179;-53
2022/12/28 03:41:23;;;;;;;10.80;4.90;;;;;;;1.98;90.93;99841.89;102634;1306;22478;-52
2022/12/28 03:43:52;;;;;;;9.20;4.50;;;;;;;1.99;90.88;99845.50;106466;1281;154212;-54
2022/12/28 03:46:39;;;;;;;11.10;4.60;;;;;;;2.00;90.97;99842.98;106548;1303;22807;-54
2022/12/28 03:49:09;;;;;;;8.80;4.30;;;;;;;2.00;90.83;99850.46;106417;1303;138323;-53
2022/12/28 03:51:36;;;;;;;11.00;5.20;;;;;;;2.00;90.69;99848.15;106702;1303;22121;-54
2022/12/28 03:54:08;;;;;;;9.20;4.30;;;;;;;1.98;90.56;99843.79;106410;1297;138509;-53
2022/12/28 03:56:36;;;;;;;13.50;5.20;;;;;;;2.00;90.55;99852.91;106412;1300;22106;-54
2022/12/28 03:59:03;;;;;;;9.80;5.30;;;;;;;2.01;90.61;99854.69;106433;1303;22231;-54
2022/12/28 04:01:36;;;;;;;12.50;4.70;;;;;;;2.02;90.74;99851.85;106427;1306;137786;-54
2022/12/28 04:04:03;;;;;;;;;;;;;;;2.03;90.64;99851.67;106592;1306;22343;-53
2022/12/28 04:06:31;;;;;;;;;;;;;;;2.01;90.42;99857.09;106449;1303;124341;-54
2022/12/28 04:08:57;;;;;;;13.30;6.20;;;;;;;2.00;90.44;99863.33;106697;1303;22147;-54
2022/12/28 04:11:26;;;;;;;11.40;4.60;;;;;;;2.00;90.48;99866.05;106550;1303;22170;-54
2022/12/28 04:13:53;;;;;;;24.10;13.00;;;;;;;2.01;90.50;99865.06;106580;1303;137921;-53
2022/12/28 04:16:20;;;;;;;19.80;9.50;;;;;;;2.01;90.35;99861.59;106692;1303;22323;-54
2022/12/28 04:18:47;;;;;;;;;;;;;;;2.02;90.34;99858.90;106494;1303;138598;-53
2022/12/28 04:21:14;;;;;;;10.40;4.70;;;;;;;2.04;90.36;99863.73;106702;1303;22170;-54
2022/12/28 04:23:42;;;;;;;8.90;5.60;;;;;;;2.05;90.45;99867.39;106686;1297;22115;-53
2022/12/28 04:26:35;;;;;;;10.00;4.60;;;;;;;2.05;90.31;99873.03;106763;1302;22130;-54
2022/12/28 04:29:02;;;;;;;11.20;4.20;;;;;;;2.06;90.32;99875.80;106536;1303;22245;-53
2022/12/28 04:31:55;;;;;;;11.20;4.30;;;;;;;2.07;90.44;99877.00;106452;1298;137949;-53
2022/12/28 04:34:22;;;;;;;8.40;4.10;;;;;;;2.07;90.43;99881.56;106699;1303;22118;-53
2022/12/28 04:36:55;;;;;;;11.40;4.80;;;;;;;2.07;90.44;99880.02;106621;1294;138592;-53
2022/12/28 04:39:22;;;;;;;9.60;4.10;;;;;;;2.07;90.40;99882.02;106577;1303;22118;-61
2022/12/28 04:41:49;;;;;;;;;;;;;;;2.06;90.52;99883.57;106703;1303;22330;-61
2022/12/28 04:44:15;;;;;;;6.00;3.60;;;;;;;2.05;90.64;99886.74;106497;1297;124054;-61
2022/12/28 04:46:42;;;;;;;7.60;4.00;;;;;;;2.04;90.84;99890.61;106682;1305;22996;-61
2022/12/28 04:49:09;;;;;;;;;;;;;;;2.01;90.92;99896.32;106577;1303;137641;-61
2022/12/28 04:51:36;;;;;;;9.60;4.50;;;;;;;1.96;91.02;99898.33;106641;1303;22155;-61
2022/12/28 04:54:02;;;;;;;;;;;;;;;1.90;91.40;99897.40;106598;1304;139562;-60
2022/12/28 04:56:29;;;;;;;6.60;4.30;;;;;;;1.87;91.71;99899.48;106614;1306;22994;-61
2022/12/28 04:58:58;;;;;;;13.20;4.70;;;;;;;1.82;92.04;99895.39;106632;1294;22118;-61
2022/12/28 05:01:25;;;;;;;9.60;5.10;;;;;;;1.78;92.33;99896.75;106489;1303;137756;-61
2022/12/28 05:03:52;;;;;;;10.40;4.80;;;;;;;1.73;92.50;99894.80;106761;1303;22146;-61
2022/12/28 05:06:23;;;;;;;14.60;6.40;;;;;;;1.72;92.84;99900.39;106469;1295;138045;-60
2022/12/28 05:08:50;;;;;;;8.30;4.00;;;;;;;1.71;92.92;99905.38;106761;1303;22151;-61
2022/12/28 05:11:21;;;;;;;10.90;4.70;;;;;;;1.69;93.00;99909.70;106695;1295;22182;-61
2022/12/28 05:13:48;;;;;;;10.30;4.70;;;;;;;1.66;93.32;99904.13;106606;1303;138743;-61
2022/12/28 05:16:17;;;;;;;11.10;5.00;;;;;;;1.67;93.52;99903.35;106716;1295;22146;-61
2022/12/28 05:18:43;;;;;;;13.40;5.30;;;;;;;1.66;93.57;99905.98;106564;1302;137854;-61
2022/12/28 05:21:11;;;;;;;9.80;5.20;;;;;;;1.67;93.81;99911.98;106700;1303;22108;-61
2022/12/28 05:23:38;;;;;;;11.00;5.30;;;;;;;1.67;93.99;99912.61;106701;1303;22314;-61
2022/12/28 05:26:05;;;;;;;;;;;;;;;1.69;94.16;99919.34;106614;1303;138539;-61
2022/12/28 05:28:32;;;;;;;10.70;6.60;;;;;;;1.70;94.36;99927.11;106728;1303;22973;-61
2022/12/28 05:31:04;;;;;;;9.80;5.00;;;;;;;1.70;94.29;99921.98;106540;1304;138906;-61
2022/12/28 05:33:32;;;;;;;12.70;4.40;;;;;;;1.69;94.41;99932.67;106597;1304;22245;-61
2022/12/28 05:36:22;;;;;;;10.70;5.90;;;;;;;1.69;94.46;99935.11;106494;1305;138256;-60
2022/12/28 05:38:49;;;;;;;8.60;4.90;;;;;;;1.70;94.62;99935.70;106697;1303;23165;-62
2022/12/28 05:41:18;;;;;;;11.20;5.10;;;;;;;1.72;94.63;99941.42;102844;1306;22493;-54
2022/12/28 05:43:45;;;;;;;10.00;5.00;;;;;;;1.73;94.77;99942.83;106591;1304;138050;-53
2022/12/28 05:46:13;;;;;;;9.10;4.70;;;;;;;1.75;94.77;99949.98;106658;1303;22145;-54
2022/12/28 05:48:40;;;;;;;9.70;5.20;;;;;;;1.75;94.71;99950.65;106582;1302;138248;-54
2022/12/28 05:51:11;;;;;;;;;;;;;;;1.76;94.66;99952.60;106781;1303;22412;-54
2022/12/28 05:53:38;;;;;;;12.40;6.30;;;;;;;1.77;94.65;99955.23;106659;1303;22264;-53
2022/12/28 05:56:04;;;;;;;;;;;;;;;1.77;94.66;99954.11;106573;1303;139230;-54
2022/12/28 05:58:39;;;;;;;8.50;4.20;;;;;;;1.77;94.75;99955.35;106667;1296;22319;-54
2022/12/28 06:01:13;;;;;;;8.20;4.70;;;;;;;1.79;94.71;99965.79;106634;1287;137508;-54
2022/12/28 06:03:40;;;;;;;7.60;4.80;;;;;;;1.80;94.68;99966.61;106668;1303;22174;-54
2022/12/28 06:06:08;;;;;;;;;;;;;;;1.77;94.44;99974.15;106595;1288;138300;-54
2022/12/28 06:08:35;;;;;;;8.00;4.50;;;;;;;1.73;94.22;99977.91;106663;1306;22126;-54
2022/12/28 06:11:03;;;;;;;11.10;4.80;;;;;;;1.70;94.17;99982.77;106575;1298;22238;-54
2022/12/28 06:13:30;;;;;;;15.00;5.60;;;;;;;1.69;94.24;99985.30;106519;1290;138525;-54
2022/12/28 06:15:57;;;;;;;;;;;;;;;1.68;94.09;99990.05;106653;1303;22443;-53
2022/12/28 06:18:27;;;;;;;19.70;8.70;;;;;;;1.68;94.08;99999.14;106602;1306;124684;-54
2022/12/28 06:20:54;;;;;;;14.40;6.00;;;;;;;1.68;94.01;100002.20;106487;1300;22271;-54
2022/12/28 06:23:22;;;;;;;10.90;5.20;;;;;;;1.68;93.99;100007.04;106614;1306;22829;-54
2022/12/28 06:25:49;;;;;;;13.70;5.70;;;;;;;1.68;93.80;100006.88;106537;1303;138419;-54
2022/12/28 06:28:16;;;;;;;9.80;5.20;;;;;;;1.66;93.68;100008.16;106695;1298;22131;-54
2022/12/28 06:30:43;;;;;;;13.10;6.30;;;;;;;1.67;93.54;100010.11;106611;1287;137913;-54
2022/12/28 06:33:17;;;;;;;16.70;5.80;;;;;;;1.65;93.45;100012.41;106695;1305;23054;-54
2022/12/28 06:35:44;;;;;;;11.00;5.50;;;;;;;1.65;93.22;100016.95;106612;1297;22170;-54
2022/12/28 06:38:11;;;;;;;8.30;4.30;;;;;;;1.67;93.33;100022.52;106497;1303;139012;-54
2022/12/28 06:40:38;;;;;;;7.70;5.10;;;;;;;1.70;93.28;100029.71;103839;1289;22496;-54
2022/12/28 06:43:24;;;;;;;11.80;5.20;;;;;;;1.71;93.01;100029.40;102171;1291;139516;-53
2022/12/28 06:45:55;;;;;;;11.00;5.10;;;;;;;1.72;92.72;100031.64;102224;1313;24136;-54
2022/12/28 06:48:22;;;;;;;8.50;4.90;;;;;;;1.72;92.68;100035.94;106529;1288;138623;-54
2022/12/28 06:50:58;;;;;;;10.00;4.60;;;;;;;1.73;92.44;100035.61;106697;1303;22127;-53
2022/12/28 06:53:27;;;;;;;7.30;3.70;;;;;;;1.73;92.12;100034.16;106673;1303;22104;-54
2022/12/28 06:55:54;;;;;;;8.70;4.80;;;;;;;1.73;91.91;100040.65;106606;1303;138287;-54
2022/12/28 06:58:22;;;;;;;6.90;4.00;;;;;;;1.72;91.55;100048.87;106668;1296;22920;-54
2022/12/28 07:00:49;;;;;;;9.40;5.10;;;;;;;1.72;91.58;100051.75;106596;1303;139259;-54
2022/12/28 07:03:15;;;;;;;;;;;;;;;1.74;91.20;100049.31;106704;1306;22370;-54
2022/12/28 07:05:42;;;;;;;12.40;6.00;;;;;;;1.74;91.10;100048.41;106721;1303;23243;-54
2022/12/28 07:08:09;;;;;;;;;;;;;;;1.71;90.95;100044.27;106678;1296;138202;-54
2022/12/28 07:10:38;;;;;;;11.10;4.80;;;;;;;1.72;90.67;100045.98;106570;1294;22552;-54
2022/12/28 07:13:05;;;;;;;10.20;4.70;;;;;;;1.72;90.70;100054.04;106540;1301;138092;-53
2022/12/28 07:15:34;;;;;;;11.50;4.50;;;;;;;1.72;90.48;100058.70;106658;1298;22133;-54
2022/12/28 07:18:01;;;;;;;8.50;4.70;;;;;;;1.73;90.59;100058.16;106481;1303;138787;-54
2022/12/28 07:20:27;;;;;;;;;;;;;;;1.73;90.12;100059.09;106686;1303;22345;-54
2022/12/28 07:22:54;;;;;;;10.90;4.80;;;;;;;1.72;90.14;100052.66;106688;1296;22206;-54
2022/12/28 07:25:21;;;;;;;11.00;5.50;;;;;;;1.72;90.08;100058.87;106557;1296;139817;-55
2022/12/28 07:27:47;;;;;;;10.20;4.50;;;;;;;1.72;89.90;100058.09;106729;1287;22114;-54
2022/12/28 07:30:14;;;;;;;10.10;4.90;;;;;;;1.72;89.78;100055.98;106516;1303;139890;-54
2022/12/28 07:32:41;;;;;;;11.10;5.00;;;;;;;1.72;89.41;100061.56;106702;1306;22203;-54
2022/12/28 07:35:08;;;;;;;9.10;4.50;;;;;;;1.71;89.37;100057.00;106674;1290;22123;-55
2022/12/28 07:37:35;;;;;;;12.00;6.00;;;;;;;1.72;89.53;100061.34;106663;1303;137543;-55
2022/12/28 07:40:01;;;;;;;13.00;5.50;;;;;;;1.74;89.43;100062.22;104972;1288;24040;-62
2022/12/28 07:42:28;;;;;;;10.30;4.40;;;;;;;1.76;89.46;100071.55;102195;1289;138077;-62
2022/12/28 07:44:55;;;;;;;13.00;4.70;;;;;;;1.77;89.61;100068.25;102335;1304;22457;-61
2022/12/28 07:47:22;;;;;;;13.30;5.10;;;;;;;1.79;89.23;100069.48;102296;1288;22500;-61
2022/12/28 07:49:49;;;;;;;;;;;;;;;1.80;89.10;100071.55;102256;1294;138279;-61
2022/12/28 07:52:15;;;;;;;18.80;9.00;;;;;;;1.78;88.89;100077.98;102418;1313;22964;-61
2022/12/28 07:54:42;;;;;;;10.40;5.30;;;;;;;1.78;89.03;100082.65;102252;1313;139732;-62
2022/12/28 07:57:09;;;;;;;11.20;5.90;;;;;;;1.78;88.88;100084.46;102496;1302;22475;-63
2022/12/28 07:59:35;;;;;;;14.50;5.00;;;;;;;1.76;88.94;100085.14;102463;1310;22838;-62
2022/12/28 08:02:02;;;;;;;9.60;5.30;;;;;;;1.76;88.74;100084.69;102403;1307;138044;-63
2022/12/28 08:04:29;;;;;;;;;;;;;;;1.76;88.75;100088.61;102636;1292;24225;-62
2022/12/28 08:06:56;;;;;;;7.20;3.90;;;;;;;1.77;88.65;100085.48;102394;1310;125207;-62
2022/12/28 08:09:22;;;;;;;15.60;4.50;;;;;;;1.76;88.46;100081.66;102405;1284;24018;-62
2022/12/28 08:11:49;;;;;;;10.90;4.60;;;;;;;1.75;88.27;100084.42;102466;1305;22547;-63
2022/12/28 08:14:16;;;;;;;11.70;4.60;;;;;;;1.74;88.41;100082.46;102305;1310;138939;-60
2022/12/28 08:16:43;;;;;;;20.90;10.80;;;;;;;1.76;88.05;100093.65;102550;1292;22721;-60
2022/12/28 08:19:10;;;;;;;9.90;5.50;;;;;;;1.78;88.18;100090.04;102325;1305;137977;-63
2022/12/28 08:21:40;;;;;;;13.60;5.70;;;;;;;1.79;88.17;100092.58;106805;1302;22207;-62
2022/12/28 08:24:08;;;;;;;13.80;5.00;;;;;;;1.81;87.98;100095.38;106726;1303;138091;-62
2022/12/28 08:26:37;;;;;;;11.00;4.60;;;;;;;1.82;87.81;100102.63;106812;1303;22122;-63
2022/12/28 08:29:06;;;;;;;10.40;4.30;;;;;;;1.84;87.71;100105.77;106798;1302;22147;-63
2022/12/28 08:31:34;;;;;;;8.30;4.20;;;;;;;1.88;87.55;100106.91;106720;1303;139749;-62
2022/12/28 08:34:02;;;;;;;70.70;33.80;;;;;;;1.90;87.47;100104.11;106810;1302;22151;-61
2022/12/28 08:36:28;;;;;;;14.30;6.80;;;;;;;1.91;87.47;100104.10;106736;1302;138515;-62
2022/12/28 08:38:56;;;;;;;17.00;5.50;;;;;;;1.96;87.35;100104.59;106854;1303;22180;-61
2022/12/28 08:41:24;;;;;;;13.20;5.20;;;;;;;2.01;87.25;100103.15;106854;1303;23048;-54
2022/12/28 08:43:51;;;;;;;8.60;4.80;;;;;;;2.04;86.83;100107.48;106807;1303;140306;-55
2022/12/28 08:46:22;;;;;;;8.10;4.10;;;;;;;2.07;86.43;100105.41;106912;1302;22292;-54
2022/12/28 08:48:50;;;;;;;9.90;4.60;;;;;;;2.08;85.74;100111.58;106725;1302;137964;-54
2022/12/28 08:51:18;;;;;;;12.30;4.60;;;;;;;2.08;85.56;100107.61;106799;1302;22369;-56
2022/12/28 08:53:45;;;;;;;9.40;4.60;;;;;;;2.09;85.47;100114.25;106807;1303;22105;-55
2022/12/28 08:56:13;;;;;;;;;;;;;;;2.10;85.43;100115.21;106740;1289;137936;-56
2022/12/28 08:58:40;;;;;;;11.10;4.50;;;;;;;2.09;85.29;100109.45;106813;1302;22150;-55
2022/12/28 09:01:08;;;;;;;10.90;4.50;;;;;;;2.15;85.11;100109.69;106747;1293;138186;-55
2022/12/28 09:03:40;;;;;;;7.80;3.80;;;;;;;2.17;85.09;100107.59;106880;1285;22776;-55
2022/12/28 09:06:10;;;;;;;7.90;4.00;;;;;;;2.20;84.95;100109.69;106631;1302;138183;-55
2022/12/28 09:08:37;;;;;;;8.80;3.90;;;;;;;2.24;84.49;100110.81;106742;1302;23376;-55
2022/12/28 09:11:04;;;;;;;;;;;;;;;2.26;84.27;100110.60;106788;1303;22396;-56
2022/12/28 09:13:31;;;;;;;7.70;4.10;;;;;;;2.27;84.42;100108.27;106688;1303;125365;-54
2022/12/28 09:16:01;;;;;;;;;;;;;;;2.30;83.92;100112.06;106821;1293;22392;-54
2022/12/28 09:18:28;;;;;;;12.40;4.10;;;;;;;2.32;83.09;100107.96;106727;1303;125398;-54
2022/12/28 09:20:55;;;;;;;15.50;4.90;;;;;;;2.34;82.98;100114.77;106831;1286;22232;-54
2022/12/28 09:23:21;;;;;;;11.40;4.20;;;;;;;2.32;82.94;100114.16;106817;1303;23277;-55
2022/12/28 09:25:48;;;;;;;8.60;4.50;;;;;;;2.36;82.87;100124.15;106724;1303;139625;-55
2022/12/28 09:28:15;;;;;;;8.90;4.20;;;;;;;2.40;83.04;100124.27;106845;1302;22575;-54
2022/12/28 09:30:41;;;;;;;12.10;3.90;;;;;;;2.43;82.72;100127.59;106736;1286;138334;-55
2022/12/28 09:35:58;;;;;;;10.20;4.40;;;;;;;2.51;81.91;100119.50;106845;1303;22152;-56
2022/12/28 09:38:25;;;;;;;9.80;4.00;;;;;;;2.54;81.75;100122.65;106838;1303;22233;-55
2022/12/28 09:40:52;;;;;;;10.40;3.80;;;;;;;2.58;81.29;100126.00;103636;1296;23845;-54
2022/12/28 09:43:19;;;;;;;9.00;3.30;;;;;;;2.59;80.70;100124.02;102301;1284;138018;-55
2022/12/28 09:45:45;;;;;;;9.60;3.80;;;;;;;2.60;79.36;100119.02;102301;1298;22473;-54
2022/12/28 09:48:13;;;;;;;;;;;;;;;2.61;79.42;100120.52;102253;1291;138006;-55
2022/12/28 09:50:40;;;;;;;7.20;4.00;;;;;;;2.63;79.50;100123.59;106505;1310;22135;-55
2022/12/28 09:53:22;;;;;;;8.80;3.60;;;;;;;2.64;79.17;100120.88;106799;1296;22139;-56
2022/12/28 09:56:14;;;;;;;7.70;4.30;;;;;;;2.67;79.53;100124.30;106503;1303;138746;-53
2022/12/28 09:58:41;;;;;;;10.90;4.80;;;;;;;2.73;79.32;100122.41;106767;1303;22882;-55
2022/12/28 10:01:13;;;;;;;9.80;4.40;;;;;;;2.79;78.74;100127.19;106713;1303;139304;-55
2022/12/28 10:03:41;;;;;;;12.90;4.00;;;;;;;2.86;78.34;100132.23;106842;1303;22154;-55
2022/12/28 10:06:12;;;;;;;11.60;4.20;;;;;;;2.91;77.56;100139.84;106694;1303;138247;-56
2022/12/28 10:08:48;;;;;;;10.60;4.70;;;;;;;2.96;77.84;100137.15;106798;1303;22930;-55
2022/12/28 10:11:19;;;;;;;6.50;3.60;;;;;;;3.01;77.56;100138.24;106811;1303;22038;-56
2022/12/28 10:13:45;;;;;;;12.10;3.90;;;;;;;3.06;76.78;100135.42;106666;1302;139860;-53
2022/12/28 10:16:22;;;;;;;12.90;3.10;;;;;;;3.08;76.16;100137.14;106801;1281;22124;-54
2022/12/28 10:18:49;;;;;;;8.50;3.40;;;;;;;3.09;75.33;100139.02;106637;1295;138295;-55
2022/12/28 10:21:17;;;;;;;9.90;3.10;;;;;;;3.10;74.71;100139.56;106652;1287;140331;-55
2022/12/28 10:25:42;;;;;;;13.00;3.40;;;;;;;3.08;72.35;100141.80;99422;1333;544947;-55
2022/12/28 10:28:09;;;;;;;12.70;5.20;;;;;;;3.03;71.21;100140.69;101097;1308;22496;-55
2022/12/28 10:31:03;;;;;;;16.90;6.10;;;;;;;3.00;71.18;100143.58;101114;1308;136740;-56
2022/12/28 10:33:30;;;;;;;11.00;4.10;;;;;;;2.98;70.43;100147.75;105321;1322;22439;-55
2022/12/28 10:35:58;;;;;;;10.00;3.80;;;;;;;2.98;70.47;100148.82;105837;1315;137343;-56
2022/12/28 10:38:31;;;;;;;11.70;4.90;;;;;;;2.98;70.07;100150.81;105789;1315;129195;-53
2022/12/28 10:41:08;;;;;;;6.50;2.70;;;;;;;3.00;69.40;100154.88;105995;1312;22369;-62
2022/12/28 10:43:36;;;;;;;10.50;2.60;;;;;;;2.99;68.40;100149.25;105673;1312;139609;-61
2022/12/28 10:46:05;;;;;;;6.30;2.10;;;;;;;2.98;68.62;100144.89;104285;1314;22618;-62
2022/12/28 10:48:37;;;;;;;8.20;2.70;;;;;;;3.00;68.64;100148.22;105404;1319;137342;-61
2022/12/28 10:51:17;;;;;;;6.70;2.50;;;;;;;3.01;68.17;100150.84;105956;1312;22957;-62
2022/12/28 10:53:49;;;;;;;6.10;2.40;;;;;;;3.02;68.95;100154.13;105979;1312;22213;-64
2022/12/28 10:56:19;;;;;;;6.10;2.20;;;;;;;3.06;69.68;100159.72;105948;1312;137474;-63
2022/12/28 10:58:47;;;;;;;8.50;2.60;;;;;;;3.11;70.43;100153.23;106025;1313;22136;-62
2022/12/28 11:01:13;;;;;;;7.50;2.70;;;;;;;3.17;70.44;100156.77;105841;1298;138991;-62
2022/12/28 11:03:43;;;;;;;9.60;3.80;;;;;;;3.22;70.42;100155.14;106053;1298;22166;-62
2022/12/28 11:06:15;;;;;;;7.40;2.70;;;;;;;3.24;69.99;100146.42;106670;1302;138280;-63
2022/12/28 11:09:18;;;;;;;16.40;7.40;;;;;;;3.27;70.05;100155.19;106814;1301;22238;-63
2022/12/28 11:11:45;;;;;;;9.70;4.40;;;;;;;3.32;70.02;100142.59;106759;1302;22157;-60
2022/12/28 11:14:15;;;;;;;8.00;2.90;;;;;;;3.34;69.92;100146.04;106580;1294;138970;-60
2022/12/28 11:16:42;;;;;;;8.20;2.80;;;;;;;3.34;68.76;100147.27;106752;1302;22266;-60
2022/12/28 11:19:09;;;;;;;;;;;;;;;3.30;68.90;100154.17;106702;1302;136865;-60
2022/12/28 11:21:36;;;;;;;8.30;3.10;;;;;;;3.22;69.14;100153.36;106814;1303;22340;-60
2022/12/28 11:24:03;;;;;;;7.40;3.20;;;;;;;3.16;69.57;100156.73;106618;1302;136903;-60
2022/12/28 11:26:30;;;;;;;13.40;4.60;;;;;;;3.12;69.76;100160.84;106665;1303;23385;-60
2022/12/28 11:28:57;;;;;;;8.30;3.40;;;;;;;3.10;70.04;100161.38;106701;1281;22965;-60
2022/12/28 11:31:37;;;;;;;8.40;3.10;;;;;;;3.06;70.08;100166.64;106628;1300;136956;-60
2022/12/28 11:34:05;;;;;;;10.30;3.30;;;;;;;2.99;70.30;100164.57;106782;1300;22163;-60
2022/12/28 11:36:36;;;;;;;9.40;3.40;;;;;;;2.99;70.33;100170.08;106678;1302;137059;-61
2022/12/28 11:39:26;;;;;;;12.10;3.70;;;;;;;2.97;70.75;100178.58;106670;1303;22708;-61
2022/12/28 11:41:56;;;;;;;7.90;3.40;;;;;;;2.94;70.07;100173.73;106759;1302;22097;-54
2022/12/28 11:44:43;;;;;;;6.30;2.70;;;;;;;2.87;69.37;100175.17;106628;1303;22231;-54
2022/12/28 11:47:25;;;;;;;9.10;3.30;;;;;;;2.79;69.49;100182.42;106731;1291;22156;-54
2022/12/28 11:49:54;;;;;;;10.40;3.50;;;;;;;2.75;70.11;100186.96;106687;1302;137112;-54
2022/12/28 11:52:26;;;;;;;7.00;3.30;;;;;;;2.74;70.16;100186.19;106845;1294;22199;-54
2022/12/28 11:54:57;;;;;;;10.30;2.90;;;;;;;2.74;70.09;100191.60;106668;1303;137702;-54
2022/12/28 11:57:42;;;;;;;8.50;2.80;;;;;;;2.73;70.30;100189.77;106709;1303;22382;-54
2022/12/28 12:00:18;;;;;;;6.30;3.70;;;;;;;2.69;69.99;100182.45;106651;1303;137734;-53
2022/12/28 12:02:56;;;;;;;8.70;3.30;;;;;;;2.71;69.82;100188.35;106818;1302;22117;-54
2022/12/28 12:05:38;;;;;;;11.50;3.30;;;;;;;2.68;70.11;100191.37;106696;1303;23411;-54
2022/12/28 12:08:10;;;;;;;8.80;3.50;;;;;;;2.67;70.68;100191.93;106654;1287;137756;-53
2022/12/28 12:10:38;;;;;;;8.00;3.40;;;;;;;2.68;71.03;100194.84;106715;1295;22951;-54
2022/12/28 12:13:24;;;;;;;7.00;3.00;;;;;;;2.69;71.04;100195.56;106637;1294;136941;-53